Impacts METAR Board
IDs:

KLAX - Los Angeles Intl, CA, US

Updated at: 0600 UTC 24 Jan 2019
Potential Impact None Slight Moderate High
Time 23/18Z 23/19Z 23/20Z 23/21Z 23/22Z 23/23Z 24/00Z 24/01Z 24/02Z 24/03Z 24/04Z 24/05Z 24/06Z
Temp61 63 64 63 62 62 61 59 58 57 56 57 56
Dewpt26 20 27 34 38 35 42 45 44 49 48 45 45
Altim30.35 30.33 30.30 30.27 30.24 30.21 30.19 30.17 30.17 30.18 30.18 30.18 30.16
VIS10 10 10 10 10 10 10 10 10 10 10 10 10
CIG-- -- -- -- -- -- -- -- -- -- -- -- --
CoverCLRCLRCLRCLRFEWFEWFEWFEWFEWCLRCLRCLRCLR
FltCatVFRVFRVFRVFRVFRVFRVFRVFRVFRVFRVFRVFRVFR
WX--------------------------
WDir00260270270260260250260250270240250
WSpd0 0 8 9 10 9 7 9 9 8 8 4 3
WGst-- -- -- -- -- -- -- -- -- -- -- -- --
Raw hourly METARs
KLAX 231753Z 00000KT 10SM CLR 16/M03 A3035 RMK AO2 SLP277 T01611033 10161 20072 50007
KLAX 231853Z 00000KT 10SM CLR 17/M07 A3033 RMK AO2 SLP271 T01721067
KLAX 231953Z 26008KT 10SM CLR 18/M03 A3030 RMK AO2 SLP261 T01781028
KLAX 232053Z 27009KT 10SM CLR 17/01 A3027 RMK AO2 SLP250 T01720011 58027
KLAX 232153Z 27010KT 10SM FEW140 FEW180 17/03 A3024 RMK AO2 SLP239 T01670033
KLAX 232253Z 26009KT 10SM FEW250 17/02 A3021 RMK AO2 SLP229 T01670017
KLAX 232353Z 26007KT 10SM FEW250 16/06 A3019 RMK AO2 SLP223 T01610056 10183 20161 56027
KLAX 240053Z 25009KT 10SM FEW250 15/07 A3017 RMK AO2 SLP218 T01500072
KLAX 240153Z 26009KT 10SM FEW250 14/07 A3017 RMK AO2 SLP218 T01440067
KLAX 240253Z 25008KT 10SM CLR 14/09 A3018 RMK AO2 SLP220 T01390094 55004
KLAX 240353Z 27008KT 10SM CLR 13/09 A3018 RMK AO2 SLP220 T01330089
KLAX 240453Z 24004KT 10SM CLR 14/07 A3018 RMK AO2 SLP219 T01390072
KLAX 240553Z 25003KT 10SM CLR 13/07 A3016 RMK AO2 SLP213 T01330072 10161 20133 58005



Page loaded:  06:11 UTC  |   10:11 PM Pacific  |   11:11 PM Mountain  |   12:11 AM Central  |   01:11 AM Eastern

 

ADVISORIES

FORECASTS

FORECASTS

OBSERVATIONS

USER TOOLS

ABOUT US